Time;durP1;ratioP1;P1;durP2;ratioP2;P2;SDS_P1;SDS_P2;PMS_P1;PMS_P2;Temp;Humidity;BMP_temperature;BMP_pressure;BME280_temperature;BME280_humidity;BME280_pressure;Samples;Min_cycle;Max_cycle;Signal;HPM_P1;HPM_P2
2022/08/29 00:00:35;;;;;;;1.17;0.68;;;;;;;;;;5076520;28;20155;-67
2022/08/29 00:03:02;;;;;;;0.70;0.60;;;;;;;;;;5083874;28;20080;-70
2022/08/29 00:05:30;;;;;;;1.13;0.60;;;;;;;;;;5085633;28;20052;-67
2022/08/29 00:07:58;;;;;;;2.70;1.10;;;;;;;;;;5083841;28;20400;-67
2022/08/29 00:10:24;;;;;;;1.45;0.82;;;;;;;;;;5087811;28;20063;-67
2022/08/29 00:12:51;;;;;;;0.63;0.63;;;;;;;;;;5085895;28;20059;-68
2022/08/29 00:15:18;;;;;;;2.63;0.77;;;;;;;;;;5070835;28;20191;-74
2022/08/29 00:17:44;;;;;;;1.15;0.60;;;;;;;;;;5083765;28;20123;-67
2022/08/29 00:20:12;;;;;;;1.27;0.70;;;;;;;;;;5094486;28;20048;-67
2022/08/29 00:22:38;;;;;;;2.38;0.77;;;;;;;;;;5071808;28;20047;-68
2022/08/29 00:25:06;;;;;;;1.85;0.73;;;;;;;;;;5090910;28;20428;-70
2022/08/29 00:27:32;;;;;;;0.80;0.70;;;;;;;;;;5087736;28;20052;-67
2022/08/29 00:29:59;;;;;;;2.58;0.80;;;;;;;;;;5081501;28;20447;-68
2022/08/29 00:32:25;;;;;;;0.65;0.65;;;;;;;;;;5077094;28;20051;-69
2022/08/29 00:34:51;;;;;;;0.60;0.52;;;;;;;;;;5080366;28;20185;-68
2022/08/29 00:37:17;;;;;;;1.88;0.85;;;;;;;;;;5090681;28;20073;-73
2022/08/29 00:39:44;;;;;;;2.15;0.88;;;;;;;;;;5078465;28;20500;-67
2022/08/29 00:42:10;;;;;;;0.73;0.70;;;;;;;;;;5091496;28;20055;-67
2022/08/29 00:44:36;;;;;;;0.93;0.52;;;;;;;;;;5076293;28;20190;-68
2022/08/29 00:47:09;;;;;;;3.55;1.42;;;;;;;;;;5088134;28;20107;-68
2022/08/29 00:49:39;;;;;;;1.85;0.70;;;;;;;;;;5087494;28;20063;-68
2022/08/29 00:52:16;;;;;;;2.65;1.00;;;;;;;;;;5092744;28;20040;-68
2022/08/29 00:54:42;;;;;;;;;;;;;;;;;;5093158;28;20052;-67
2022/08/29 00:57:08;;;;;;;1.13;0.90;;;;;;;;;;5092825;28;20027;-67
2022/08/29 00:59:37;;;;;;;0.60;0.50;;;;;;;;;;5106423;28;20059;-67
2022/08/29 01:02:04;;;;;;;1.10;0.60;;;;;;;;;;5092296;28;20093;-67
2022/08/29 01:04:31;;;;;;;0.95;0.88;;;;;;;;;;5092825;28;20059;-69
2022/08/29 01:06:57;;;;;;;1.15;0.80;;;;;;;;;;5092079;28;20455;-69
2022/08/29 01:09:24;;;;;;;1.00;0.80;;;;;;;;;;5091795;28;20048;-68
2022/08/29 01:14:36;;;;;;;0.80;0.70;;;;;;;;;;5092731;28;20066;-69
2022/08/29 01:17:03;;;;;;;1.35;0.70;;;;;;;;;;5094090;28;20478;-68
2022/08/29 01:19:51;;;;;;;1.10;0.70;;;;;;;;;;5113051;28;20108;-67
2022/08/29 01:22:41;;;;;;;0.80;0.70;;;;;;;;;;5111312;28;20493;-68
2022/08/29 01:25:11;;;;;;;2.35;0.70;;;;;;;;;;5073087;28;20447;-69
2022/08/29 01:27:39;;;;;;;0.70;0.70;;;;;;;;;;5070958;28;20068;-67
2022/08/29 01:30:06;;;;;;;2.63;0.70;;;;;;;;;;5072021;28;20052;-67
2022/08/29 01:32:32;;;;;;;1.45;0.60;;;;;;;;;;5071144;28;20367;-68
2022/08/29 01:34:58;;;;;;;1.30;0.75;;;;;;;;;;5105389;28;20052;-68
2022/08/29 01:37:26;;;;;;;1.88;0.52;;;;;;;;;;5109344;28;20060;-70
2022/08/29 01:39:52;;;;;;;1.52;1.23;;;;;;;;;;5113259;28;20051;-67
2022/08/29 01:42:20;;;;;;;1.58;1.00;;;;;;;;;;5112827;28;20055;-68
2022/08/29 01:44:54;;;;;;;0.70;0.70;;;;;;;;;;5112730;28;20047;-67
2022/08/29 01:47:20;;;;;;;1.20;0.65;;;;;;;;;;5111914;28;20047;-68
2022/08/29 01:49:47;;;;;;;1.67;0.70;;;;;;;;;;5108570;28;20044;-67
2022/08/29 01:52:13;;;;;;;1.23;0.80;;;;;;;;;;5112155;28;20047;-67
2022/08/29 01:54:40;;;;;;;2.08;0.88;;;;;;;;;;5112663;28;20411;-67
2022/08/29 01:57:07;;;;;;;0.68;0.60;;;;;;;;;;5097212;28;20044;-67
2022/08/29 01:59:33;;;;;;;1.42;0.85;;;;;;;;;;5093883;28;20051;-69
2022/08/29 02:02:02;;;;;;;0.93;0.75;;;;;;;;;;5094642;28;20040;-68
2022/08/29 02:04:28;;;;;;;1.52;0.90;;;;;;;;;;5107625;28;20511;-68
2022/08/29 02:06:55;;;;;;;0.85;0.70;;;;;;;;;;5091473;28;20671;-70
2022/08/29 02:09:21;;;;;;;1.50;1.17;;;;;;;;;;5094769;28;20131;-67
2022/08/29 02:11:48;;;;;;;1.17;0.70;;;;;;;;;;5112010;28;20051;-67
2022/08/29 02:14:14;;;;;;;0.90;0.85;;;;;;;;;;5112673;28;20149;-69
2022/08/29 02:16:40;;;;;;;2.53;0.95;;;;;;;;;;5110879;28;20084;-67
2022/08/29 02:19:06;;;;;;;1.48;0.90;;;;;;;;;;5112660;28;20082;-67
2022/08/29 02:21:32;;;;;;;1.33;0.95;;;;;;;;;;5111685;28;20040;-70
2022/08/29 02:24:00;;;;;;;1.05;0.80;;;;;;;;;;5102429;28;20040;-67
2022/08/29 02:26:26;;;;;;;2.30;0.90;;;;;;;;;;5110767;28;20044;-74
2022/08/29 02:28:52;;;;;;;1.58;0.80;;;;;;;;;;5111832;28;20044;-68
2022/08/29 02:31:19;;;;;;;1.30;0.80;;;;;;;;;;5090918;28;20055;-67
2022/08/29 02:33:46;;;;;;;2.88;1.17;;;;;;;;;;5091292;28;20099;-67
2022/08/29 02:36:12;;;;;;;0.68;0.55;;;;;;;;;;5091897;28;20044;-68
2022/08/29 02:38:38;;;;;;;1.23;0.75;;;;;;;;;;5090463;28;20121;-67
2022/08/29 02:41:05;;;;;;;2.47;1.00;;;;;;;;;;5107668;28;20051;-67
2022/08/29 02:43:31;;;;;;;0.70;0.70;;;;;;;;;;5111954;28;20113;-67
2022/08/29 02:45:57;;;;;;;1.27;0.90;;;;;;;;;;5111054;28;20047;-67
2022/08/29 02:48:24;;;;;;;1.13;0.70;;;;;;;;;;5111718;28;20377;-67
2022/08/29 02:50:52;;;;;;;1.23;0.60;;;;;;;;;;5110752;28;20619;-68
2022/08/29 02:53:20;;;;;;;1.58;0.82;;;;;;;;;;5090831;28;20058;-68
2022/08/29 02:55:47;;;;;;;1.63;0.80;;;;;;;;;;5105203;28;20079;-67
2022/08/29 02:58:14;;;;;;;1.48;0.88;;;;;;;;;;5093159;28;20126;-67
2022/08/29 03:00:41;;;;;;;0.93;0.60;;;;;;;;;;5089089;28;20048;-67
2022/08/29 03:03:07;;;;;;;0.77;0.63;;;;;;;;;;5106825;28;20040;-67
2022/08/29 03:05:35;;;;;;;1.95;1.00;;;;;;;;;;5089894;28;20054;-67
2022/08/29 03:08:03;;;;;;;0.80;0.80;;;;;;;;;;5089474;28;20393;-68
2022/08/29 03:10:29;;;;;;;1.10;0.75;;;;;;;;;;5092894;28;20056;-68
2022/08/29 03:12:55;;;;;;;1.70;0.70;;;;;;;;;;5106481;28;20046;-67
2022/08/29 03:15:22;;;;;;;1.27;1.05;;;;;;;;;;5101895;28;20055;-69
2022/08/29 03:17:48;;;;;;;0.95;0.85;;;;;;;;;;5110533;28;20473;-68
2022/08/29 03:20:16;;;;;;;1.25;1.00;;;;;;;;;;5111531;28;20177;-69
2022/08/29 03:22:43;;;;;;;1.48;1.05;;;;;;;;;;5110015;28;20048;-67
2022/08/29 03:25:11;;;;;;;1.83;0.90;;;;;;;;;;5111176;28;20613;-67
2022/08/29 03:27:37;;;;;;;1.92;0.93;;;;;;;;;;5110698;28;20062;-67
2022/08/29 03:30:04;;;;;;;1.45;0.80;;;;;;;;;;5110187;28;20419;-67
2022/08/29 03:32:31;;;;;;;1.50;0.70;;;;;;;;;;5108663;28;20485;-67
2022/08/29 03:34:57;;;;;;;1.35;0.80;;;;;;;;;;5093374;28;20048;-68
2022/08/29 03:37:25;;;;;;;0.90;0.73;;;;;;;;;;5093189;28;20071;-68
2022/08/29 03:39:51;;;;;;;1.02;0.85;;;;;;;;;;5089184;28;20058;-67
2022/08/29 03:42:17;;;;;;;0.65;0.65;;;;;;;;;;5088481;28;20052;-69
2022/08/29 03:44:43;;;;;;;1.63;0.88;;;;;;;;;;5105331;28;20062;-67
2022/08/29 03:47:10;;;;;;;2.05;0.85;;;;;;;;;;5109807;28;20044;-67
2022/08/29 03:49:36;;;;;;;1.10;0.80;;;;;;;;;;5109767;28;20048;-74
2022/08/29 03:52:03;;;;;;;0.82;0.63;;;;;;;;;;5110223;28;20039;-68
2022/08/29 03:54:29;;;;;;;1.10;0.60;;;;;;;;;;5107819;28;20052;-67
2022/08/29 03:56:55;;;;;;;1.77;0.88;;;;;;;;;;5101909;28;20058;-68
2022/08/29 03:59:21;;;;;;;1.27;0.88;;;;;;;;;;5098708;28;20044;-66
2022/08/29 04:01:48;;;;;;;0.93;0.75;;;;;;;;;;5088919;28;20400;-67
2022/08/29 04:07:00;;;;;;;3.63;1.27;;;;;;;;;;5093443;28;20052;-67
2022/08/29 04:09:26;;;;;;;1.65;0.82;;;;;;;;;;5094634;28;20520;-67
2022/08/29 04:11:52;;;;;;;1.40;0.90;;;;;;;;;;5109751;28;20044;-67
2022/08/29 04:14:19;;;;;;;1.65;0.73;;;;;;;;;;5094843;28;20409;-67
2022/08/29 04:16:48;;;;;;;0.93;0.73;;;;;;;;;;5107426;28;20051;-68
2022/08/29 04:19:15;;;;;;;1.20;0.90;;;;;;;;;;5114923;28;20458;-68
2022/08/29 04:21:41;;;;;;;1.85;0.98;;;;;;;;;;5113909;28;20043;-67
2022/08/29 04:24:07;;;;;;;1.30;0.90;;;;;;;;;;5114254;28;20504;-67
2022/08/29 04:26:33;;;;;;;1.02;0.60;;;;;;;;;;5093160;28;20123;-67
2022/08/29 04:29:00;;;;;;;1.05;0.77;;;;;;;;;;5093735;28;20059;-67
2022/08/29 04:31:26;;;;;;;1.00;0.68;;;;;;;;;;5093085;28;20563;-67
2022/08/29 04:33:52;;;;;;;1.10;0.75;;;;;;;;;;5100772;28;20047;-67
2022/08/29 04:36:18;;;;;;;2.00;0.90;;;;;;;;;;5112095;28;20054;-67
2022/08/29 04:38:44;;;;;;;2.15;0.90;;;;;;;;;;5113092;28;20055;-67
2022/08/29 04:41:14;;;;;;;3.13;0.95;;;;;;;;;;5113327;28;20051;-67
2022/08/29 04:43:45;;;;;;;2.28;0.88;;;;;;;;;;5113925;28;20047;-67
2022/08/29 04:46:13;;;;;;;0.90;0.82;;;;;;;;;;5099418;28;20075;-67
2022/08/29 04:48:39;;;;;;;1.23;0.90;;;;;;;;;;5073158;28;20055;-73
2022/08/29 04:51:05;;;;;;;1.67;0.80;;;;;;;;;;5073794;28;20049;-68
2022/08/29 04:53:31;;;;;;;1.83;0.80;;;;;;;;;;5072694;28;20049;-67
2022/08/29 04:55:58;;;;;;;1.02;0.65;;;;;;;;;;5085879;28;20227;-66
2022/08/29 04:58:24;;;;;;;1.88;1.10;;;;;;;;;;5114140;28;20055;-66
2022/08/29 05:00:51;;;;;;;1.10;0.80;;;;;;;;;;5094651;28;20047;-67
2022/08/29 05:03:18;;;;;;;1.98;0.80;;;;;;;;;;5112284;28;20047;-67
2022/08/29 05:05:44;;;;;;;1.08;0.98;;;;;;;;;;5107660;28;20122;-67
2022/08/29 05:08:11;;;;;;;1.58;0.88;;;;;;;;;;5092676;28;20048;-67
2022/08/29 05:10:37;;;;;;;1.23;0.85;;;;;;;;;;5107461;28;20095;-67
2022/08/29 05:13:03;;;;;;;1.70;0.75;;;;;;;;;;5113352;28;20048;-67
2022/08/29 05:15:30;;;;;;;1.30;0.90;;;;;;;;;;5108081;28;20047;-66
2022/08/29 05:17:56;;;;;;;1.00;0.70;;;;;;;;;;5092613;28;20532;-69
2022/08/29 05:20:22;;;;;;;2.28;0.90;;;;;;;;;;5093658;28;20044;-67
2022/08/29 05:22:48;;;;;;;2.13;1.20;;;;;;;;;;5107388;28;20083;-67
2022/08/29 05:25:15;;;;;;;0.63;0.63;;;;;;;;;;5112579;28;20047;-67
2022/08/29 05:27:41;;;;;;;1.45;0.75;;;;;;;;;;5102236;28;20059;-67
2022/08/29 05:30:07;;;;;;;1.10;0.80;;;;;;;;;;5108795;28;20056;-67
2022/08/29 05:32:34;;;;;;;1.95;0.93;;;;;;;;;;5090960;28;20056;-67
2022/08/29 05:35:02;;;;;;;1.38;0.90;;;;;;;;;;5092366;28;20499;-66
2022/08/29 05:37:28;;;;;;;1.00;0.77;;;;;;;;;;5092655;28;20052;-66
2022/08/29 05:39:54;;;;;;;1.63;0.68;;;;;;;;;;5091961;28;20052;-67
2022/08/29 05:42:22;;;;;;;1.42;0.80;;;;;;;;;;5092330;28;20063;-66
2022/08/29 05:44:48;;;;;;;1.02;0.68;;;;;;;;;;5092098;28;20101;-68
2022/08/29 05:47:16;;;;;;;1.05;0.80;;;;;;;;;;5091422;28;20213;-67
2022/08/29 05:49:42;;;;;;;1.80;0.82;;;;;;;;;;5092965;28;20060;-66
2022/08/29 05:52:09;;;;;;;1.20;0.93;;;;;;;;;;5091270;28;20039;-64
2022/08/29 05:54:37;;;;;;;1.45;0.90;;;;;;;;;;5092490;28;20561;-64
2022/08/29 05:57:04;;;;;;;0.93;0.70;;;;;;;;;;5091937;28;20121;-64
2022/08/29 05:59:30;;;;;;;1.55;0.85;;;;;;;;;;5092476;28;20043;-64
2022/08/29 06:01:56;;;;;;;1.17;0.75;;;;;;;;;;5090666;28;20047;-64
2022/08/29 06:04:22;;;;;;;1.42;0.90;;;;;;;;;;5092623;28;20051;-65
2022/08/29 06:06:49;;;;;;;3.10;1.20;;;;;;;;;;5091513;28;20060;-70
2022/08/29 06:09:15;;;;;;;1.17;0.90;;;;;;;;;;5107196;28;20059;-66
2022/08/29 06:11:45;;;;;;;1.55;1.00;;;;;;;;;;5104682;28;20059;-65
2022/08/29 06:14:12;;;;;;;1.50;0.93;;;;;;;;;;5112196;28;20119;-64
2022/08/29 06:16:38;;;;;;;3.17;1.13;;;;;;;;;;5111326;28;20058;-65
2022/08/29 06:19:05;;;;;;;1.60;1.23;;;;;;;;;;5111073;28;20496;-65
2022/08/29 06:21:31;;;;;;;2.67;1.20;;;;;;;;;;5075757;28;20051;-67
2022/08/29 06:23:57;;;;;;;2.65;1.38;;;;;;;;;;5089767;28;20063;-68
2022/08/29 06:26:24;;;;;;;2.78;1.70;;;;;;;;;;5093090;28;20048;-64
2022/08/29 06:28:50;;;;;;;4.03;1.80;;;;;;;;;;5091840;28;20055;-69
2022/08/29 06:31:20;;;;;;;5.78;1.73;;;;;;;;;;5090798;28;20051;-65
2022/08/29 06:33:47;;;;;;;5.10;1.52;;;;;;;;;;5091881;28;20516;-65
2022/08/29 06:36:13;;;;;;;4.57;1.73;;;;;;;;;;5091340;28;20043;-67
2022/08/29 06:38:39;;;;;;;5.45;2.03;;;;;;;;;;5090948;28;20143;-69
2022/08/29 06:41:09;;;;;;;3.97;1.95;;;;;;;;;;5090916;28;20093;-66
2022/08/29 06:43:36;;;;;;;3.65;1.98;;;;;;;;;;5090491;28;20052;-69
2022/08/29 06:46:02;;;;;;;4.22;2.25;;;;;;;;;;5097257;28;20044;-67
2022/08/29 06:48:28;;;;;;;5.28;2.42;;;;;;;;;;5110538;28;20047;-68
2022/08/29 06:50:54;;;;;;;6.03;2.10;;;;;;;;;;5111530;28;20136;-68
2022/08/29 06:53:21;;;;;;;5.55;2.55;;;;;;;;;;5110969;28;20127;-69
2022/08/29 06:55:47;;;;;;;7.55;2.63;;;;;;;;;;5111795;28;20067;-67
2022/08/29 06:58:13;;;;;;;8.82;3.05;;;;;;;;;;5100412;28;20039;-68
2022/08/29 07:00:44;;;;;;;5.35;2.60;;;;;;;;;;5092435;28;20489;-67
2022/08/29 07:03:10;;;;;;;9.50;2.92;;;;;;;;;;5110820;28;20047;-69
2022/08/29 07:05:36;;;;;;;5.07;2.72;;;;;;;;;;5111767;28;20050;-67
2022/08/29 07:08:03;;;;;;;6.55;2.78;;;;;;;;;;5101763;28;20044;-71
2022/08/29 07:10:29;;;;;;;6.93;2.95;;;;;;;;;;5097743;28;20051;-68
2022/08/29 07:12:55;;;;;;;6.82;2.72;;;;;;;;;;5078958;28;20050;-76
2022/08/29 07:15:22;;;;;;;9.00;3.30;;;;;;;;;;5087615;28;20139;-71
2022/08/29 07:17:48;;;;;;;7.88;3.50;;;;;;;;;;5089637;28;20127;-67
2022/08/29 07:20:15;;;;;;;6.43;2.72;;;;;;;;;;5087598;28;21024;-72
2022/08/29 07:22:41;;;;;;;6.88;2.80;;;;;;;;;;5089364;28;20043;-68
2022/08/29 07:25:09;;;;;;;6.82;3.35;;;;;;;;;;5088615;28;20048;-68
2022/08/29 07:27:53;;;;;;;5.53;2.63;;;;;;;;;;5089401;28;20039;-68
2022/08/29 07:30:19;;;;;;;9.90;3.05;;;;;;;;;;5085951;28;20044;-73
2022/08/29 07:32:46;;;;;;;6.78;2.72;;;;;;;;;;5086250;28;20101;-70
2022/08/29 07:35:13;;;;;;;7.57;2.80;;;;;;;;;;5086515;28;20152;-68
2022/08/29 07:37:39;;;;;;;7.38;2.67;;;;;;;;;;5069207;28;20051;-66
2022/08/29 07:40:06;;;;;;;6.70;2.88;;;;;;;;;;5085773;28;20051;-69
2022/08/29 07:42:33;;;;;;;8.43;3.20;;;;;;;;;;5087454;28;20482;-65
2022/08/29 07:44:59;;;;;;;6.45;2.60;;;;;;;;;;5088942;28;20075;-74
2022/08/29 07:47:25;;;;;;;8.02;2.97;;;;;;;;;;5087146;28;20420;-70
2022/08/29 07:49:52;;;;;;;6.28;3.33;;;;;;;;;;5095417;28;20047;-66
2022/08/29 07:52:18;;;;;;;5.93;1.90;;;;;;;;;;5084684;28;20041;-66
2022/08/29 07:54:44;;;;;;;4.97;2.17;;;;;;;;;;5079862;28;20064;-65
2022/08/29 07:57:11;;;;;;;6.53;2.00;;;;;;;;;;5077040;28;20052;-66
2022/08/29 07:59:37;;;;;;;5.20;2.17;;;;;;;;;;5077712;28;20052;-66
2022/08/29 08:02:03;;;;;;;4.63;1.90;;;;;;;;;;5084147;28;20045;-62
2022/08/29 08:04:30;;;;;;;4.85;2.10;;;;;;;;;;5070281;28;20402;-63
2022/08/29 08:06:56;;;;;;;7.18;2.30;;;;;;;;;;5069580;28;20044;-65
2022/08/29 08:09:22;;;;;;;4.68;2.03;;;;;;;;;;5088246;28;20799;-62
2022/08/29 08:11:48;;;;;;;4.55;1.90;;;;;;;;;;5100835;28;20048;-64
2022/08/29 08:14:14;;;;;;;5.55;2.00;;;;;;;;;;5089705;28;20083;-62
2022/08/29 08:16:40;;;;;;;5.15;2.13;;;;;;;;;;5108075;28;20046;-62
2022/08/29 08:19:06;;;;;;;4.18;2.05;;;;;;;;;;5081498;28;20044;-62
2022/08/29 08:21:33;;;;;;;4.18;2.15;;;;;;;;;;5076681;28;20040;-64
2022/08/29 08:23:59;;;;;;;5.50;2.40;;;;;;;;;;5091551;28;20460;-72
2022/08/29 08:26:25;;;;;;;5.78;2.35;;;;;;;;;;5085329;28;20815;-68
2022/08/29 08:28:52;;;;;;;6.75;1.98;;;;;;;;;;5070096;28;20070;-69
2022/08/29 08:31:19;;;;;;;6.97;2.13;;;;;;;;;;5068120;28;20060;-70
2022/08/29 08:33:46;;;;;;;4.40;2.20;;;;;;;;;;5080864;28;20404;-67
2022/08/29 08:36:13;;;;;;;6.13;2.72;;;;;;;;;;5095215;28;20056;-69
2022/08/29 08:38:39;;;;;;;5.60;2.10;;;;;;;;;;5088034;28;20051;-70
2022/08/29 08:41:17;;;;;;;6.95;2.00;;;;;;;;;;5088487;28;20052;-75
2022/08/29 08:43:48;;;;;;;3.63;2.05;;;;;;;;;;5081716;28;20123;-68
2022/08/29 08:46:14;;;;;;;5.45;2.20;;;;;;;;;;5087993;28;20063;-69
2022/08/29 08:48:40;;;;;;;6.40;2.20;;;;;;;;;;5074339;28;20086;-68
2022/08/29 08:51:14;;;;;;;6.25;2.28;;;;;;;;;;5088948;28;20052;-75
2022/08/29 08:53:42;;;;;;;5.03;2.35;;;;;;;;;;5084606;28;20369;-69
2022/08/29 08:56:27;;;;;;;5.30;2.10;;;;;;;;;;5097337;28;20044;-77
2022/08/29 08:58:55;;;;;;;6.32;2.65;;;;;;;;;;5099439;28;20130;-69
2022/08/29 09:01:32;;;;;;;5.72;2.28;;;;;;;;;;5107550;28;20043;-67
2022/08/29 09:04:17;;;;;;;3.83;1.95;;;;;;;;;;5101357;28;20067;-68
2022/08/29 09:06:43;;;;;;;5.65;2.15;;;;;;;;;;5100734;28;20051;-67
2022/08/29 09:09:27;;;;;;;5.18;1.88;;;;;;;;;;5109709;28;20055;-74
2022/08/29 09:11:54;;;;;;;4.05;2.03;;;;;;;;;;5081831;28;20039;-68
2022/08/29 09:14:26;;;;;;;4.55;1.80;;;;;;;;;;5100561;28;20430;-69
2022/08/29 09:16:54;;;;;;;4.28;1.70;;;;;;;;;;5099537;28;20580;-70
2022/08/29 09:19:20;;;;;;;5.07;1.80;;;;;;;;;;5102837;28;20172;-67
2022/08/29 09:21:48;;;;;;;4.70;1.90;;;;;;;;;;5102260;28;20047;-68
2022/08/29 09:24:27;;;;;;;5.97;1.60;;;;;;;;;;5104092;28;20043;-68
2022/08/29 09:26:55;;;;;;;3.80;1.98;;;;;;;;;;5093106;28;20097;-67
2022/08/29 09:29:21;;;;;;;3.78;1.60;;;;;;;;;;5108577;28;20129;-67
2022/08/29 09:32:04;;;;;;;4.20;1.55;;;;;;;;;;5092045;28;20128;-65
2022/08/29 09:34:36;;;;;;;12.88;2.85;;;;;;;;;;5103373;28;20086;-68
2022/08/29 09:37:03;;;;;;;6.03;2.05;;;;;;;;;;5100554;28;20057;-66
2022/08/29 09:39:30;;;;;;;4.70;2.05;;;;;;;;;;5101354;28;20177;-65
2022/08/29 09:42:16;;;;;;;7.07;1.90;;;;;;;;;;5099911;28;20185;-64
2022/08/29 09:44:50;;;;;;;7.35;2.00;;;;;;;;;;5096214;28;20056;-66
2022/08/29 09:47:20;;;;;;;3.95;1.90;;;;;;;;;;5106514;28;20416;-72
2022/08/29 09:50:00;;;;;;;7.53;2.03;;;;;;;;;;5100139;28;20511;-65
2022/08/29 09:52:26;;;;;;;3.45;1.80;;;;;;;;;;5102321;28;20508;-67
2022/08/29 09:54:52;;;;;;;3.33;1.63;;;;;;;;;;5099207;28;20052;-68
2022/08/29 09:57:18;;;;;;;6.20;1.65;;;;;;;;;;5098053;28;20127;-67
2022/08/29 09:59:46;;;;;;;4.32;2.08;;;;;;;;;;5100241;28;20131;-70
2022/08/29 10:02:20;;;;;;;9.43;2.22;;;;;;;;;;5106987;28;20473;-78
2022/08/29 10:04:59;;;;;;;3.72;1.83;;;;;;;;;;5096186;28;20071;-72
2022/08/29 10:07:45;;;;;;;7.20;1.80;;;;;;;;;;5098291;28;20046;-72
2022/08/29 10:10:15;;;;;;;5.75;1.95;;;;;;;;;;5094465;28;20568;-72
2022/08/29 10:13:00;;;;;;;4.40;1.98;;;;;;;;;;5084970;28;20050;-72
2022/08/29 10:15:34;;;;;;;4.85;2.00;;;;;;;;;;5084615;28;20043;-72
2022/08/29 10:18:19;;;;;;;6.75;2.00;;;;;;;;;;5094127;28;20052;-72
2022/08/29 10:20:51;;;;;;;7.30;1.73;;;;;;;;;;5088961;28;20083;-70
2022/08/29 10:23:17;;;;;;;6.78;1.83;;;;;;;;;;5090553;28;20047;-71
2022/08/29 10:25:43;;;;;;;6.93;1.73;;;;;;;;;;5099748;28;20427;-71
2022/08/29 10:28:32;;;;;;;6.72;1.90;;;;;;;;;;5099216;28;20056;-71
2022/08/29 10:31:07;;;;;;;4.88;2.25;;;;;;;;;;5087988;28;20128;-71
2022/08/29 10:33:39;;;;;;;6.97;1.80;;;;;;;;;;5085109;28;20036;-71
2022/08/29 10:36:06;;;;;;;3.70;2.03;;;;;;;;;;5092193;28;20570;-71
2022/08/29 10:38:50;;;;;;;4.10;1.65;;;;;;;;;;5092917;28;20119;-71
2022/08/29 10:41:28;;;;;;;4.70;1.85;;;;;;;;;;5092683;28;20052;-71
2022/08/29 10:44:01;;;;;;;3.53;1.70;;;;;;;;;;5094666;28;20060;-71
2022/08/29 10:46:46;;;;;;;5.13;2.25;;;;;;;;;;5084054;28;20040;-71
2022/08/29 10:49:15;;;;;;;4.90;1.77;;;;;;;;;;5092860;28;20054;-71
2022/08/29 10:51:49;;;;;;;8.32;2.08;;;;;;;;;;5095886;28;20043;-72
2022/08/29 10:54:41;;;;;;;3.50;1.50;;;;;;;;;;5093271;28;20048;-72
2022/08/29 10:57:08;;;;;;;4.65;1.90;;;;;;;;;;5079342;28;20052;-72
2022/08/29 10:59:55;;;;;;;5.55;1.80;;;;;;;;;;5090102;28;20535;-71
2022/08/29 11:02:29;;;;;;;7.00;1.88;;;;;;;;;;5088716;28;20036;-71
2022/08/29 11:04:58;;;;;;;2.78;1.48;;;;;;;;;;5093345;28;20407;-71
2022/08/29 11:07:36;;;;;;;4.25;1.50;;;;;;;;;;5090827;28;20081;-72
2022/08/29 11:10:09;;;;;;;2.95;1.40;;;;;;;;;;5090937;28;20044;-71
2022/08/29 11:12:45;;;;;;;7.00;1.80;;;;;;;;;;5089220;28;20109;-72
2022/08/29 11:15:17;;;;;;;2.72;1.50;;;;;;;;;;5095148;28;20059;-71
2022/08/29 11:17:46;;;;;;;6.72;1.98;;;;;;;;;;5084577;28;20060;-71
2022/08/29 11:20:20;;;;;;;3.30;1.88;;;;;;;;;;5095575;28;20052;-71
2022/08/29 11:22:51;;;;;;;3.97;1.80;;;;;;;;;;5078426;28;20077;-72
2022/08/29 11:25:19;;;;;;;4.35;1.60;;;;;;;;;;5086257;28;20061;-71
2022/08/29 11:28:03;;;;;;;4.63;1.70;;;;;;;;;;5083017;28;20051;-73
2022/08/29 11:30:53;;;;;;;3.65;1.80;;;;;;;;;;5092068;28;20091;-72
2022/08/29 11:33:31;;;;;;;4.43;1.60;;;;;;;;;;5073132;28;20117;-72
2022/08/29 11:36:15;;;;;;;6.22;1.52;;;;;;;;;;5090582;28;20047;-72
2022/08/29 11:39:00;;;;;;;3.42;1.65;;;;;;;;;;5088873;28;20255;-72
2022/08/29 11:41:33;;;;;;;2.50;1.33;;;;;;;;;;5091361;28;20516;-75
2022/08/29 11:44:22;;;;;;;5.32;1.92;;;;;;;;;;5085165;28;20051;-73
2022/08/29 11:46:49;;;;;;;3.60;1.50;;;;;;;;;;5086051;28;20052;-69
2022/08/29 11:49:27;;;;;;;3.75;1.50;;;;;;;;;;5076066;28;20149;-77
2022/08/29 11:52:12;;;;;;;5.82;1.80;;;;;;;;;;5099594;28;20036;-66
2022/08/29 11:54:39;;;;;;;5.00;1.88;;;;;;;;;;5090157;28;20051;-73
2022/08/29 11:57:05;;;;;;;6.85;2.10;;;;;;;;;;5075765;28;20390;-76
2022/08/29 11:59:49;;;;;;;5.47;1.98;;;;;;;;;;5090115;28;20115;-75
2022/08/29 12:02:37;;;;;;;4.93;1.85;;;;;;;;;;5087072;28;20040;-75
2022/08/29 12:05:16;;;;;;;7.00;2.22;;;;;;;;;;5073338;28;20064;-76
2022/08/29 12:07:54;;;;;;;6.68;2.47;;;;;;;;;;5085982;28;20072;-75
2022/08/29 12:10:23;;;;;;;7.75;2.00;;;;;;;;;;5080879;28;20049;-74
2022/08/29 12:12:55;;;;;;;3.78;1.70;;;;;;;;;;5085001;28;20541;-74
2022/08/29 12:15:27;;;;;;;9.18;2.10;;;;;;;;;;5089199;28;20048;-70
2022/08/29 12:17:57;;;;;;;5.60;1.67;;;;;;;;;;5089543;28;20566;-70
2022/08/29 12:20:29;;;;;;;3.88;1.67;;;;;;;;;;5086859;28;20169;-70
2022/08/29 12:22:56;;;;;;;6.28;1.95;;;;;;;;;;5088565;28;20694;-70
2022/08/29 12:25:43;;;;;;;8.38;2.08;;;;;;;;;;5091965;28;20554;-71
2022/08/29 12:28:16;;;;;;;6.68;1.80;;;;;;;;;;5102751;28;20497;-72
2022/08/29 12:30:48;;;;;;;12.63;2.55;;;;;;;;;;5079039;28;20072;-72
2022/08/29 12:33:20;;;;;;;7.30;2.00;;;;;;;;;;5080672;28;20040;-73
2022/08/29 12:35:49;;;;;;;7.60;2.30;;;;;;;;;;5073966;28;20040;-71
2022/08/29 12:38:15;;;;;;;8.38;2.60;;;;;;;;;;5075388;28;20513;-72
2022/08/29 12:40:41;;;;;;;6.72;2.63;;;;;;;;;;5076889;28;20041;-71
2022/08/29 12:43:07;;;;;;;5.50;1.77;;;;;;;;;;5072764;28;20139;-71
2022/08/29 12:45:34;;;;;;;3.03;1.70;;;;;;;;;;5071059;28;20050;-72
2022/08/29 12:48:05;;;;;;;4.60;1.85;;;;;;;;;;5072080;28;20058;-72
2022/08/29 12:50:34;;;;;;;5.68;1.92;;;;;;;;;;5079380;28;20067;-74
2022/08/29 12:53:05;;;;;;;7.97;2.13;;;;;;;;;;5084098;28;20036;-72
2022/08/29 12:55:42;;;;;;;3.20;1.60;;;;;;;;;;5073679;28;20084;-71
2022/08/29 12:58:09;;;;;;;9.80;2.67;;;;;;;;;;5081021;28;20036;-72
2022/08/29 13:00:36;;;;;;;4.45;1.95;;;;;;;;;;5075791;28;20160;-71
2022/08/29 13:03:20;;;;;;;6.53;2.22;;;;;;;;;;5083742;28;20071;-74
2022/08/29 13:05:47;;;;;;;5.57;2.10;;;;;;;;;;5085855;28;20632;-73
2022/08/29 13:08:16;;;;;;;5.63;2.22;;;;;;;;;;5091247;28;20055;-71
2022/08/29 13:10:56;;;;;;;4.47;1.85;;;;;;;;;;5091400;28;20040;-72
2022/08/29 13:13:23;;;;;;;9.20;2.08;;;;;;;;;;5091602;28;20039;-72
2022/08/29 13:15:53;;;;;;;4.78;1.80;;;;;;;;;;5091420;28;20123;-73
2022/08/29 13:18:20;;;;;;;3.20;1.92;;;;;;;;;;5093075;28;20087;-72
2022/08/29 13:21:01;;;;;;;10.38;2.13;;;;;;;;;;5093005;28;20044;-71
2022/08/29 13:23:32;;;;;;;4.95;2.10;;;;;;;;;;5089641;28;20050;-76
2022/08/29 13:26:01;;;;;;;5.03;1.92;;;;;;;;;;5080543;28;20147;-70
2022/08/29 13:28:36;;;;;;;4.68;1.80;;;;;;;;;;5091405;28;20147;-69
2022/08/29 13:31:07;;;;;;;4.38;2.05;;;;;;;;;;5090226;28;20561;-70
2022/08/29 13:33:34;;;;;;;3.92;2.08;;;;;;;;;;5100787;28;20392;-69
2022/08/29 13:36:00;;;;;;;4.95;1.75;;;;;;;;;;5092867;28;20738;-69
2022/08/29 13:38:27;;;;;;;5.05;2.10;;;;;;;;;;5090780;28;20115;-70
2022/08/29 13:40:57;;;;;;;10.85;1.88;;;;;;;;;;5091306;28;20052;-68
2022/08/29 13:43:34;;;;;;;5.93;2.88;;;;;;;;;;5099731;28;20052;-70
2022/08/29 13:46:06;;;;;;;5.82;1.80;;;;;;;;;;5091984;28;20048;-68
2022/08/29 13:48:32;;;;;;;4.22;2.35;;;;;;;;;;5107461;28;20173;-75
2022/08/29 13:50:59;;;;;;;3.55;2.10;;;;;;;;;;5098975;28;20043;-69
2022/08/29 13:53:25;;;;;;;3.17;1.75;;;;;;;;;;5092177;28;20044;-73
2022/08/29 13:55:51;;;;;;;6.90;2.05;;;;;;;;;;5090921;28;20048;-73
2022/08/29 13:58:17;;;;;;;3.55;1.73;;;;;;;;;;5078569;28;20048;-67
2022/08/29 14:00:43;;;;;;;6.85;2.40;;;;;;;;;;5089364;28;20133;-69
2022/08/29 14:03:10;;;;;;;7.10;2.03;;;;;;;;;;5093245;28;20485;-68
2022/08/29 14:05:37;;;;;;;4.35;1.90;;;;;;;;;;5094148;28;20055;-68
2022/08/29 14:08:04;;;;;;;7.28;2.00;;;;;;;;;;5089460;28;20508;-68
2022/08/29 14:10:30;;;;;;;5.22;1.80;;;;;;;;;;5083893;28;20068;-68
2022/08/29 14:12:56;;;;;;;8.07;2.33;;;;;;;;;;5109535;27;20040;-70
2022/08/29 14:15:22;;;;;;;4.90;2.00;;;;;;;;;;5090584;28;20136;-70
2022/08/29 14:17:49;;;;;;;4.00;1.83;;;;;;;;;;5092857;28;20051;-67
2022/08/29 14:20:17;;;;;;;7.70;2.38;;;;;;;;;;5108194;27;20056;-67
2022/08/29 14:22:43;;;;;;;5.47;1.90;;;;;;;;;;5088648;28;20435;-69
2022/08/29 14:25:10;;;;;;;5.05;1.90;;;;;;;;;;5077148;28;20127;-67
2022/08/29 14:27:37;;;;;;;9.85;1.90;;;;;;;;;;5097285;28;20047;-68
2022/08/29 14:30:05;;;;;;;5.20;2.00;;;;;;;;;;5090228;28;20079;-67
2022/08/29 14:32:31;;;;;;;2.95;1.60;;;;;;;;;;5089355;28;20063;-66
2022/08/29 14:34:57;;;;;;;7.07;1.90;;;;;;;;;;5089668;28;20047;-66
2022/08/29 14:37:24;;;;;;;6.38;2.60;;;;;;;;;;5077524;28;20053;-66
2022/08/29 14:39:50;;;;;;;5.57;1.60;;;;;;;;;;5085019;28;20053;-65
2022/08/29 14:42:17;;;;;;;5.20;1.73;;;;;;;;;;5088074;28;20059;-67
2022/08/29 14:44:43;;;;;;;4.38;1.50;;;;;;;;;;5088954;28;20055;-65
2022/08/29 14:47:09;;;;;;;4.70;2.30;;;;;;;;;;5084857;28;20111;-66
2022/08/29 14:49:35;;;;;;;4.45;1.75;;;;;;;;;;5075675;28;20119;-74
2022/08/29 14:52:02;;;;;;;2.15;1.30;;;;;;;;;;5084058;28;20043;-69
2022/08/29 14:54:28;;;;;;;5.28;2.35;;;;;;;;;;5071743;28;20442;-66
2022/08/29 14:56:54;;;;;;;2.78;1.55;;;;;;;;;;5087080;28;20056;-66
2022/08/29 14:59:21;;;;;;;4.20;1.77;;;;;;;;;;5084239;28;20151;-66